sensor_id;sensor_type;location;lat;lon;timestamp;noise_LAeq;noise_LA_min;noise_LA_max;noise_LA01;noise_LA95
61095;Laerm;20450;49.074;9.158;2023-11-21T00:02:31;42.88;41.22;44.58;;
61095;Laerm;20450;49.074;9.158;2023-11-21T00:04:59;42.90;41.22;44.27;;
61095;Laerm;20450;49.074;9.158;2023-11-21T00:07:26;43.02;40.89;45.36;;
61095;Laerm;20450;49.074;9.158;2023-11-21T00:09:54;42.98;41.46;44.83;;
61095;Laerm;20450;49.074;9.158;2023-11-21T00:12:21;42.90;41.06;44.31;;
61095;Laerm;20450;49.074;9.158;2023-11-21T00:14:49;42.86;40.98;44.47;;
61095;Laerm;20450;49.074;9.158;2023-11-21T00:17:16;42.90;41.06;44.23;;
61095;Laerm;20450;49.074;9.158;2023-11-21T00:19:44;42.80;41.30;44.62;;
61095;Laerm;20450;49.074;9.158;2023-11-21T00:22:13;42.75;41.06;45.36;;
61095;Laerm;20450;49.074;9.158;2023-11-21T00:24:40;42.70;40.43;44.27;;
61095;Laerm;20450;49.074;9.158;2023-11-21T00:27:08;42.73;40.71;44.27;;
61095;Laerm;20450;49.074;9.158;2023-11-21T00:29:36;42.78;40.80;44.38;;
61095;Laerm;20450;49.074;9.158;2023-11-21T00:32:05;61.89;40.33;96.28;;
61095;Laerm;20450;49.074;9.158;2023-11-21T00:34:34;45.06;40.53;68.01;;
61095;Laerm;20450;49.074;9.158;2023-11-21T00:37:03;42.75;41.06;49.62;;
61095;Laerm;20450;49.074;9.158;2023-11-21T00:39:30;42.70;40.43;43.97;;
61095;Laerm;20450;49.074;9.158;2023-11-21T00:41:58;42.81;41.14;48.91;;
61095;Laerm;20450;49.074;9.158;2023-11-21T00:44:26;42.81;41.06;50.53;;
61095;Laerm;20450;49.074;9.158;2023-11-21T00:46:55;42.87;41.30;44.35;;
61095;Laerm;20450;49.074;9.158;2023-11-21T00:49:26;42.87;41.22;44.76;;
61095;Laerm;20450;49.074;9.158;2023-11-21T00:51:53;42.85;40.80;47.67;;
61095;Laerm;20450;49.074;9.158;2023-11-21T00:54:24;42.69;40.45;44.19;;
61095;Laerm;20450;49.074;9.158;2023-11-21T00:56:51;42.76;40.98;44.11;;
61095;Laerm;20450;49.074;9.158;2023-11-21T00:59:18;42.55;40.89;43.90;;
61095;Laerm;20450;49.074;9.158;2023-11-21T01:01:46;42.55;40.89;49.70;;
61095;Laerm;20450;49.074;9.158;2023-11-21T01:04:13;42.61;40.89;51.16;;
61095;Laerm;20450;49.074;9.158;2023-11-21T01:06:40;42.75;40.71;50.89;;
61095;Laerm;20450;49.074;9.158;2023-11-21T01:09:08;42.65;40.43;47.18;;
61095;Laerm;20450;49.074;9.158;2023-11-21T01:11:37;42.73;40.98;53.80;;
61095;Laerm;20450;49.074;9.158;2023-11-21T01:14:04;42.71;41.06;50.74;;
61095;Laerm;20450;49.074;9.158;2023-11-21T01:16:32;42.65;40.89;45.36;;
61095;Laerm;20450;49.074;9.158;2023-11-21T01:18:59;42.58;40.98;46.71;;
61095;Laerm;20450;49.074;9.158;2023-11-21T01:21:26;42.61;40.80;45.23;;
61095;Laerm;20450;49.074;9.158;2023-11-21T01:23:54;42.72;40.98;47.44;;
61095;Laerm;20450;49.074;9.158;2023-11-21T01:26:22;42.71;41.14;44.59;;
61095;Laerm;20450;49.074;9.158;2023-11-21T01:28:50;42.70;41.06;45.60;;
61095;Laerm;20450;49.074;9.158;2023-11-21T01:31:17;42.64;40.03;46.28;;
61095;Laerm;20450;49.074;9.158;2023-11-21T01:33:46;42.53;40.98;45.01;;
61095;Laerm;20450;49.074;9.158;2023-11-21T01:36:13;42.65;40.89;44.11;;
61095;Laerm;20450;49.074;9.158;2023-11-21T01:38:40;42.66;40.80;45.36;;
61095;Laerm;20450;49.074;9.158;2023-11-21T01:41:08;42.67;40.89;44.76;;
61095;Laerm;20450;49.074;9.158;2023-11-21T01:43:35;42.56;40.62;44.43;;
61095;Laerm;20450;49.074;9.158;2023-11-21T01:46:05;42.73;40.98;45.27;;
61095;Laerm;20450;49.074;9.158;2023-11-21T01:48:34;42.65;40.80;44.39;;
61095;Laerm;20450;49.074;9.158;2023-11-21T01:51:03;42.65;40.62;44.07;;
61095;Laerm;20450;49.074;9.158;2023-11-21T01:53:32;42.64;40.80;46.55;;
61095;Laerm;20450;49.074;9.158;2023-11-21T01:56:00;42.52;40.53;44.15;;
61095;Laerm;20450;49.074;9.158;2023-11-21T01:58:28;42.63;40.71;44.27;;
61095;Laerm;20450;49.074;9.158;2023-11-21T02:00:56;42.58;40.80;43.94;;
61095;Laerm;20450;49.074;9.158;2023-11-21T02:03:24;44.92;40.62;75.62;;
61095;Laerm;20450;49.074;9.158;2023-11-21T02:05:52;42.67;40.71;45.89;;
61095;Laerm;20450;49.074;9.158;2023-11-21T02:08:19;42.54;40.62;47.63;;
61095;Laerm;20450;49.074;9.158;2023-11-21T02:10:47;42.57;40.98;47.70;;
61095;Laerm;20450;49.074;9.158;2023-11-21T02:13:14;42.52;40.62;47.24;;
61095;Laerm;20450;49.074;9.158;2023-11-21T02:15:42;42.57;40.33;45.36;;
61095;Laerm;20450;49.074;9.158;2023-11-21T02:18:09;42.65;40.80;45.80;;
61095;Laerm;20450;49.074;9.158;2023-11-21T02:20:38;42.61;40.71;45.17;;
61095;Laerm;20450;49.074;9.158;2023-11-21T02:23:07;42.57;40.62;46.89;;
61095;Laerm;20450;49.074;9.158;2023-11-21T02:25:34;42.56;40.80;45.07;;
61095;Laerm;20450;49.074;9.158;2023-11-21T02:28:03;42.50;39.81;44.94;;
61095;Laerm;20450;49.074;9.158;2023-11-21T02:30:31;42.55;40.89;45.17;;
61095;Laerm;20450;49.074;9.158;2023-11-21T02:32:58;42.45;40.43;46.48;;
61095;Laerm;20450;49.074;9.158;2023-11-21T02:35:26;42.51;40.03;47.18;;
61095;Laerm;20450;49.074;9.158;2023-11-21T02:37:54;42.46;40.53;46.52;;
61095;Laerm;20450;49.074;9.158;2023-11-21T02:40:23;42.44;40.33;47.36;;
61095;Laerm;20450;49.074;9.158;2023-11-21T02:42:50;42.48;40.62;45.39;;
61095;Laerm;20450;49.074;9.158;2023-11-21T02:45:20;42.62;40.80;45.07;;
61095;Laerm;20450;49.074;9.158;2023-11-21T02:47:48;42.52;40.80;46.52;;
61095;Laerm;20450;49.074;9.158;2023-11-21T02:50:16;42.54;40.89;46.66;;
61095;Laerm;20450;49.074;9.158;2023-11-21T02:52:43;42.60;40.43;44.94;;
61095;Laerm;20450;49.074;9.158;2023-11-21T02:55:10;42.55;40.80;44.19;;
61095;Laerm;20450;49.074;9.158;2023-11-21T02:57:38;42.54;40.53;44.03;;
61095;Laerm;20450;49.074;9.158;2023-11-21T03:00:08;42.49;40.33;44.69;;
61095;Laerm;20450;49.074;9.158;2023-11-21T03:02:43;42.42;40.62;47.21;;
61095;Laerm;20450;49.074;9.158;2023-11-21T03:05:12;42.38;40.62;46.62;;
61095;Laerm;20450;49.074;9.158;2023-11-21T03:07:41;42.34;40.13;45.39;;
61095;Laerm;20450;49.074;9.158;2023-11-21T03:10:12;42.50;40.80;44.62;;
61095;Laerm;20450;49.074;9.158;2023-11-21T03:12:41;42.35;40.13;49.60;;
61095;Laerm;20450;49.074;9.158;2023-11-21T03:15:10;42.39;40.43;45.63;;
61095;Laerm;20450;49.074;9.158;2023-11-21T03:17:43;42.32;40.53;46.07;;
61095;Laerm;20450;49.074;9.158;2023-11-21T03:20:11;42.38;40.53;46.15;;
61095;Laerm;20450;49.074;9.158;2023-11-21T03:22:39;42.50;40.71;57.42;;
61095;Laerm;20450;49.074;9.158;2023-11-21T03:25:07;42.45;40.53;47.36;;
61095;Laerm;20450;49.074;9.158;2023-11-21T03:27:34;42.60;40.71;44.94;;
61095;Laerm;20450;49.074;9.158;2023-11-21T03:30:04;42.57;40.71;51.08;;
61095;Laerm;20450;49.074;9.158;2023-11-21T03:32:33;42.61;40.98;44.11;;
61095;Laerm;20450;49.074;9.158;2023-11-21T03:35:01;42.65;40.96;44.31;;
61095;Laerm;20450;49.074;9.158;2023-11-21T03:37:30;42.61;40.33;44.19;;
61095;Laerm;20450;49.074;9.158;2023-11-21T03:39:57;42.75;40.53;44.54;;
61095;Laerm;20450;49.074;9.158;2023-11-21T03:42:25;42.51;40.62;43.99;;
61095;Laerm;20450;49.074;9.158;2023-11-21T03:44:52;42.52;40.63;43.86;;
61095;Laerm;20450;49.074;9.158;2023-11-21T03:47:21;42.69;41.06;44.11;;
61095;Laerm;20450;49.074;9.158;2023-11-21T03:49:49;42.65;40.71;44.07;;
61095;Laerm;20450;49.074;9.158;2023-11-21T03:52:17;42.75;40.62;44.20;;
61095;Laerm;20450;49.074;9.158;2023-11-21T03:54:44;42.65;40.53;44.07;;
61095;Laerm;20450;49.074;9.158;2023-11-21T03:57:12;42.69;40.62;44.15;;
61095;Laerm;20450;49.074;9.158;2023-11-21T03:59:40;42.66;40.71;44.11;;
61095;Laerm;20450;49.074;9.158;2023-11-21T04:02:09;42.80;40.62;44.11;;
61095;Laerm;20450;49.074;9.158;2023-11-21T04:04:39;42.92;40.89;49.81;;
61095;Laerm;20450;49.074;9.158;2023-11-21T04:07:12;42.98;41.30;44.73;;
61095;Laerm;20450;49.074;9.158;2023-11-21T04:09:43;42.90;41.14;44.51;;
61095;Laerm;20450;49.074;9.158;2023-11-21T04:12:10;42.77;40.98;44.27;;
61095;Laerm;20450;49.074;9.158;2023-11-21T04:14:38;42.84;40.43;45.20;;
61095;Laerm;20450;49.074;9.158;2023-11-21T04:17:06;42.74;40.80;44.15;;
61095;Laerm;20450;49.074;9.158;2023-11-21T04:19:33;42.73;40.98;44.49;;
61095;Laerm;20450;49.074;9.158;2023-11-21T04:22:02;42.64;40.98;44.27;;
61095;Laerm;20450;49.074;9.158;2023-11-21T04:24:30;42.78;40.98;44.83;;
61095;Laerm;20450;49.074;9.158;2023-11-21T04:26:57;42.77;40.62;44.51;;
61095;Laerm;20450;49.074;9.158;2023-11-21T04:29:24;42.74;40.62;44.07;;
61095;Laerm;20450;49.074;9.158;2023-11-21T04:31:51;42.93;41.22;44.35;;
61095;Laerm;20450;49.074;9.158;2023-11-21T04:34:21;42.82;41.06;44.80;;
61095;Laerm;20450;49.074;9.158;2023-11-21T04:36:49;42.76;40.89;47.12;;
61095;Laerm;20450;49.074;9.158;2023-11-21T04:39:18;42.85;41.22;44.31;;
61095;Laerm;20450;49.074;9.158;2023-11-21T04:41:46;42.68;41.14;44.07;;
61095;Laerm;20450;49.074;9.158;2023-11-21T04:44:13;42.73;41.06;44.23;;
61095;Laerm;20450;49.074;9.158;2023-11-21T04:46:40;42.74;40.98;44.19;;
61095;Laerm;20450;49.074;9.158;2023-11-21T04:49:08;42.72;41.06;44.54;;
61095;Laerm;20450;49.074;9.158;2023-11-21T04:51:37;42.63;41.11;44.07;;
61095;Laerm;20450;49.074;9.158;2023-11-21T04:54:05;42.61;40.98;43.86;;
61095;Laerm;20450;49.074;9.158;2023-11-21T04:56:33;42.54;40.62;46.76;;
61095;Laerm;20450;49.074;9.158;2023-11-21T04:59:00;42.50;40.80;45.69;;
61095;Laerm;20450;49.074;9.158;2023-11-21T05:01:27;42.49;40.80;43.89;;
61095;Laerm;20450;49.074;9.158;2023-11-21T05:03:54;42.70;41.22;45.99;;
61095;Laerm;20450;49.074;9.158;2023-11-21T05:06:22;42.67;40.98;46.07;;
61095;Laerm;20450;49.074;9.158;2023-11-21T05:08:49;42.80;40.89;47.72;;
61095;Laerm;20450;49.074;9.158;2023-11-21T05:11:24;42.84;40.98;46.48;;
61095;Laerm;20450;49.074;9.158;2023-11-21T05:13:53;42.91;41.38;51.64;;
61095;Laerm;20450;49.074;9.158;2023-11-21T05:16:20;43.59;41.30;60.20;;
61095;Laerm;20450;49.074;9.158;2023-11-21T05:18:47;42.94;41.14;45.11;;
61095;Laerm;20450;49.074;9.158;2023-11-21T05:21:14;43.05;41.22;48.96;;
61095;Laerm;20450;49.074;9.158;2023-11-21T05:23:41;43.05;41.38;52.50;;
61095;Laerm;20450;49.074;9.158;2023-11-21T05:26:08;42.97;40.98;50.41;;
61095;Laerm;20450;49.074;9.158;2023-11-21T05:28:36;43.02;41.38;49.00;;
61095;Laerm;20450;49.074;9.158;2023-11-21T05:31:06;43.06;41.38;46.34;;
61095;Laerm;20450;49.074;9.158;2023-11-21T05:33:43;42.84;41.06;44.62;;
61095;Laerm;20450;49.074;9.158;2023-11-21T05:36:10;43.01;41.30;46.15;;
61095;Laerm;20450;49.074;9.158;2023-11-21T05:38:37;43.00;41.38;45.97;;
61095;Laerm;20450;49.074;9.158;2023-11-21T05:41:04;42.93;40.89;44.39;;
61095;Laerm;20450;49.074;9.158;2023-11-21T05:43:32;42.87;41.14;44.69;;
61095;Laerm;20450;49.074;9.158;2023-11-21T05:46:00;42.98;40.98;49.79;;
61095;Laerm;20450;49.074;9.158;2023-11-21T05:48:29;42.97;41.22;47.54;;
61095;Laerm;20450;49.074;9.158;2023-11-21T05:50:57;42.83;40.98;45.63;;
61095;Laerm;20450;49.074;9.158;2023-11-21T05:53:24;42.85;41.06;45.80;;
61095;Laerm;20450;49.074;9.158;2023-11-21T05:55:51;42.84;41.22;52.79;;
61095;Laerm;20450;49.074;9.158;2023-11-21T05:58:18;43.07;41.06;50.38;;
61095;Laerm;20450;49.074;9.158;2023-11-21T06:00:45;42.89;41.30;46.45;;
61095;Laerm;20450;49.074;9.158;2023-11-21T06:03:13;43.05;41.30;57.93;;
61095;Laerm;20450;49.074;9.158;2023-11-21T06:05:42;42.79;40.23;47.16;;
61095;Laerm;20450;49.074;9.158;2023-11-21T06:08:10;43.00;41.06;45.72;;
61095;Laerm;20450;49.074;9.158;2023-11-21T06:10:38;42.94;41.22;46.40;;
61095;Laerm;20450;49.074;9.158;2023-11-21T06:13:05;43.11;41.38;46.89;;
61095;Laerm;20450;49.074;9.158;2023-11-21T06:15:32;43.06;41.22;53.59;;
61095;Laerm;20450;49.074;9.158;2023-11-21T06:18:00;43.02;40.89;45.17;;
61095;Laerm;20450;49.074;9.158;2023-11-21T06:20:27;49.73;41.14;76.91;;
61095;Laerm;20450;49.074;9.158;2023-11-21T06:22:56;43.19;41.06;56.83;;
61095;Laerm;20450;49.074;9.158;2023-11-21T06:25:25;43.18;41.22;57.05;;
61095;Laerm;20450;49.074;9.158;2023-11-21T06:27:53;43.16;41.22;56.30;;
61095;Laerm;20450;49.074;9.158;2023-11-21T06:30:24;43.01;41.46;46.57;;
61095;Laerm;20450;49.074;9.158;2023-11-21T06:32:51;42.84;40.80;50.45;;
61095;Laerm;20450;49.074;9.158;2023-11-21T06:35:26;42.73;40.98;46.69;;
61095;Laerm;20450;49.074;9.158;2023-11-21T06:37:53;42.74;40.62;44.90;;
61095;Laerm;20450;49.074;9.158;2023-11-21T06:40:23;42.86;41.06;45.45;;
61095;Laerm;20450;49.074;9.158;2023-11-21T06:42:50;42.76;40.62;46.28;;
61095;Laerm;20450;49.074;9.158;2023-11-21T06:45:18;42.73;40.98;45.57;;
61095;Laerm;20450;49.074;9.158;2023-11-21T06:47:45;42.71;40.98;44.87;;
61095;Laerm;20450;49.074;9.158;2023-11-21T06:50:13;42.77;40.89;51.05;;
61095;Laerm;20450;49.074;9.158;2023-11-21T06:52:43;42.87;41.06;48.12;;
61095;Laerm;20450;49.074;9.158;2023-11-21T06:55:10;42.69;41.06;45.51;;
61095;Laerm;20450;49.074;9.158;2023-11-21T06:57:39;42.71;40.43;47.84;;
61095;Laerm;20450;49.074;9.158;2023-11-21T07:00:08;42.71;40.98;45.45;;
61095;Laerm;20450;49.074;9.158;2023-11-21T07:02:36;42.76;40.89;46.87;;
61095;Laerm;20450;49.074;9.158;2023-11-21T07:05:05;42.81;41.06;47.72;;
61095;Laerm;20450;49.074;9.158;2023-11-21T07:07:32;42.88;40.53;52.39;;
61095;Laerm;20450;49.074;9.158;2023-11-21T07:09:59;42.60;40.62;45.57;;
61095;Laerm;20450;49.074;9.158;2023-11-21T07:12:26;42.74;40.71;49.12;;
61095;Laerm;20450;49.074;9.158;2023-11-21T07:14:54;42.86;41.06;56.52;;
61095;Laerm;20450;49.074;9.158;2023-11-21T07:17:22;42.72;40.80;46.62;;
61095;Laerm;20450;49.074;9.158;2023-11-21T07:19:48;42.75;40.71;48.76;;
61095;Laerm;20450;49.074;9.158;2023-11-21T07:22:16;42.65;40.98;45.57;;
61095;Laerm;20450;49.074;9.158;2023-11-21T07:24:43;42.82;41.06;46.23;;
61095;Laerm;20450;49.074;9.158;2023-11-21T07:27:11;44.12;40.98;56.72;;
61095;Laerm;20450;49.074;9.158;2023-11-21T07:29:38;42.92;41.22;46.78;;
61095;Laerm;20450;49.074;9.158;2023-11-21T07:32:07;42.80;40.71;47.00;;
61095;Laerm;20450;49.074;9.158;2023-11-21T07:34:36;42.50;40.80;44.43;;
61095;Laerm;20450;49.074;9.158;2023-11-21T07:37:06;42.73;40.98;50.03;;
61095;Laerm;20450;49.074;9.158;2023-11-21T07:39:35;42.73;41.06;50.89;;
61095;Laerm;20450;49.074;9.158;2023-11-21T07:42:08;42.76;41.22;47.57;;
61095;Laerm;20450;49.074;9.158;2023-11-21T07:44:37;42.74;41.06;44.54;;
61095;Laerm;20450;49.074;9.158;2023-11-21T07:47:07;42.92;40.96;46.80;;
61095;Laerm;20450;49.074;9.158;2023-11-21T07:49:36;42.76;41.14;48.67;;
61095;Laerm;20450;49.074;9.158;2023-11-21T07:52:05;42.74;40.80;46.07;;
61095;Laerm;20450;49.074;9.158;2023-11-21T07:54:33;42.94;41.14;47.61;;
61095;Laerm;20450;49.074;9.158;2023-11-21T07:57:01;42.70;41.14;46.02;;
61095;Laerm;20450;49.074;9.158;2023-11-21T07:59:29;42.79;41.06;51.54;;
61095;Laerm;20450;49.074;9.158;2023-11-21T08:01:59;42.74;40.89;44.90;;
61095;Laerm;20450;49.074;9.158;2023-11-21T08:04:30;42.92;40.98;45.07;;
61095;Laerm;20450;49.074;9.158;2023-11-21T08:07:01;42.85;40.98;46.80;;
61095;Laerm;20450;49.074;9.158;2023-11-21T08:09:30;42.65;40.62;46.28;;
61095;Laerm;20450;49.074;9.158;2023-11-21T08:11:57;42.79;40.98;45.42;;
61095;Laerm;20450;49.074;9.158;2023-11-21T08:14:24;42.94;41.22;44.39;;
61095;Laerm;20450;49.074;9.158;2023-11-21T08:16:51;42.92;41.22;46.25;;
61095;Laerm;20450;49.074;9.158;2023-11-21T08:19:18;43.18;41.14;56.98;;
61095;Laerm;20450;49.074;9.158;2023-11-21T08:21:47;43.23;41.22;50.17;;
61095;Laerm;20450;49.074;9.158;2023-11-21T08:24:15;42.92;40.89;45.57;;
61095;Laerm;20450;49.074;9.158;2023-11-21T08:26:43;42.86;41.14;51.70;;
61095;Laerm;20450;49.074;9.158;2023-11-21T08:29:10;42.91;41.38;46.50;;
61095;Laerm;20450;49.074;9.158;2023-11-21T08:31:38;42.75;40.23;46.06;;
61095;Laerm;20450;49.074;9.158;2023-11-21T08:34:07;42.75;40.80;44.47;;
61095;Laerm;20450;49.074;9.158;2023-11-21T08:36:34;42.79;40.89;44.97;;
61095;Laerm;20450;49.074;9.158;2023-11-21T08:39:04;42.91;40.89;47.36;;
61095;Laerm;20450;49.074;9.158;2023-11-21T08:41:33;42.81;40.98;47.91;;
61095;Laerm;20450;49.074;9.158;2023-11-21T08:43:59;42.85;41.30;52.92;;
61095;Laerm;20450;49.074;9.158;2023-11-21T08:46:27;42.80;40.89;44.54;;
61095;Laerm;20450;49.074;9.158;2023-11-21T08:48:56;42.58;40.43;46.93;;
61095;Laerm;20450;49.074;9.158;2023-11-21T08:51:23;42.51;40.71;46.91;;
61095;Laerm;20450;49.074;9.158;2023-11-21T08:53:55;42.76;40.89;44.90;;
61095;Laerm;20450;49.074;9.158;2023-11-21T08:56:27;43.09;41.06;49.58;;
61095;Laerm;20450;49.074;9.158;2023-11-21T08:58:56;42.67;40.80;44.27;;
61095;Laerm;20450;49.074;9.158;2023-11-21T09:01:24;42.78;41.06;44.76;;
61095;Laerm;20450;49.074;9.158;2023-11-21T09:03:53;42.45;40.53;45.80;;
61095;Laerm;20450;49.074;9.158;2023-11-21T09:06:20;49.43;40.53;73.67;;
61095;Laerm;20450;49.074;9.158;2023-11-21T09:08:48;51.78;40.53;73.48;;
61095;Laerm;20450;49.074;9.158;2023-11-21T09:11:17;49.15;40.43;71.78;;
61095;Laerm;20450;49.074;9.158;2023-11-21T09:13:45;43.81;40.62;69.48;;
61095;Laerm;20450;49.074;9.158;2023-11-21T09:16:13;42.62;40.98;50.25;;
61095;Laerm;20450;49.074;9.158;2023-11-21T09:18:43;42.67;40.71;46.28;;
61095;Laerm;20450;49.074;9.158;2023-11-21T09:21:15;42.63;40.80;44.07;;
61095;Laerm;20450;49.074;9.158;2023-11-21T09:23:44;43.30;39.70;64.01;;
61095;Laerm;20450;49.074;9.158;2023-11-21T09:26:11;43.78;40.80;63.54;;
61095;Laerm;20450;49.074;9.158;2023-11-21T09:28:39;43.83;40.43;60.65;;
61095;Laerm;20450;49.074;9.158;2023-11-21T09:31:13;42.57;38.95;44.03;;
61095;Laerm;20450;49.074;9.158;2023-11-21T09:33:40;42.49;40.43;45.11;;
61095;Laerm;20450;49.074;9.158;2023-11-21T09:36:12;42.43;40.53;44.39;;
61095;Laerm;20450;49.074;9.158;2023-11-21T09:38:43;42.33;40.23;44.07;;
61095;Laerm;20450;49.074;9.158;2023-11-21T09:41:23;42.65;40.80;46.33;;
61095;Laerm;20450;49.074;9.158;2023-11-21T09:44:01;42.38;40.33;44.54;;
61095;Laerm;20450;49.074;9.158;2023-11-21T09:46:32;42.28;40.53;48.49;;
61095;Laerm;20450;49.074;9.158;2023-11-21T09:49:04;42.69;40.71;45.04;;
61095;Laerm;20450;49.074;9.158;2023-11-21T09:51:36;42.36;40.53;47.02;;
61095;Laerm;20450;49.074;9.158;2023-11-21T09:54:04;42.55;40.53;44.23;;
61095;Laerm;20450;49.074;9.158;2023-11-21T09:56:32;42.82;40.13;44.90;;
61095;Laerm;20450;49.074;9.158;2023-11-21T09:59:00;42.27;40.23;43.63;;
61095;Laerm;20450;49.074;9.158;2023-11-21T10:01:33;42.49;40.62;44.58;;
61095;Laerm;20450;49.074;9.158;2023-11-21T10:04:04;42.48;40.62;44.76;;
61095;Laerm;20450;49.074;9.158;2023-11-21T10:06:41;42.60;40.33;50.83;;
61095;Laerm;20450;49.074;9.158;2023-11-21T10:09:10;42.56;40.62;44.54;;
61095;Laerm;20450;49.074;9.158;2023-11-21T10:11:41;42.64;40.43;45.36;;
61095;Laerm;20450;49.074;9.158;2023-11-21T10:14:10;43.05;40.62;44.76;;
61095;Laerm;20450;49.074;9.158;2023-11-21T10:16:47;42.66;40.71;49.55;;
61095;Laerm;20450;49.074;9.158;2023-11-21T10:19:16;42.69;40.80;47.95;;
61095;Laerm;20450;49.074;9.158;2023-11-21T10:21:45;42.95;41.06;46.38;;
61095;Laerm;20450;49.074;9.158;2023-11-21T10:24:13;43.09;41.46;45.86;;
61095;Laerm;20450;49.074;9.158;2023-11-21T10:26:41;42.85;41.22;45.69;;
61095;Laerm;20450;49.074;9.158;2023-11-21T10:29:19;42.76;41.14;45.45;;
61095;Laerm;20450;49.074;9.158;2023-11-21T10:31:51;42.80;40.98;44.58;;
61095;Laerm;20450;49.074;9.158;2023-11-21T10:34:20;43.20;39.46;47.32;;
61095;Laerm;20450;49.074;9.158;2023-11-21T10:36:50;43.10;41.41;45.48;;
61095;Laerm;20450;49.074;9.158;2023-11-21T10:39:20;42.92;41.14;44.19;;
61095;Laerm;20450;49.074;9.158;2023-11-21T10:41:57;42.89;40.71;48.51;;
61095;Laerm;20450;49.074;9.158;2023-11-21T10:44:25;43.19;41.46;46.59;;
61095;Laerm;20450;49.074;9.158;2023-11-21T10:46:55;43.07;41.22;45.59;;
61095;Laerm;20450;49.074;9.158;2023-11-21T10:49:22;43.10;41.30;46.15;;
61095;Laerm;20450;49.074;9.158;2023-11-21T10:51:53;43.25;41.30;50.00;;
61095;Laerm;20450;49.074;9.158;2023-11-21T10:54:20;43.14;41.30;45.20;;
61095;Laerm;20450;49.074;9.158;2023-11-21T10:56:53;43.39;41.61;50.28;;
61095;Laerm;20450;49.074;9.158;2023-11-21T10:59:25;43.27;41.61;47.22;;
61095;Laerm;20450;49.074;9.158;2023-11-21T11:02:00;43.41;41.61;48.15;;
61095;Laerm;20450;49.074;9.158;2023-11-21T11:04:32;43.31;41.82;48.37;;
61095;Laerm;20450;49.074;9.158;2023-11-21T11:07:03;43.38;41.75;47.34;;
61095;Laerm;20450;49.074;9.158;2023-11-21T11:09:35;43.26;41.82;45.23;;
61095;Laerm;20450;49.074;9.158;2023-11-21T11:12:03;43.27;41.61;48.08;;
61095;Laerm;20450;49.074;9.158;2023-11-21T11:14:31;43.33;41.75;45.54;;
61095;Laerm;20450;49.074;9.158;2023-11-21T11:17:01;43.19;41.46;45.39;;
61095;Laerm;20450;49.074;9.158;2023-11-21T11:19:29;43.27;41.30;55.94;;
61095;Laerm;20450;49.074;9.158;2023-11-21T11:22:15;43.28;41.53;47.65;;
61095;Laerm;20450;49.074;9.158;2023-11-21T11:25:14;43.42;41.06;50.80;;
61095;Laerm;20450;49.074;9.158;2023-11-21T11:27:55;43.30;41.22;49.02;;
61095;Laerm;20450;49.074;9.158;2023-11-21T11:30:41;43.14;41.06;46.05;;
61095;Laerm;20450;49.074;9.158;2023-11-21T11:33:27;43.10;41.14;47.57;;
61095;Laerm;20450;49.074;9.158;2023-11-21T11:36:04;43.59;40.71;50.33;;
61095;Laerm;20450;49.074;9.158;2023-11-21T11:38:34;43.40;41.61;50.23;;
61095;Laerm;20450;49.074;9.158;2023-11-21T11:41:03;43.35;41.46;44.97;;
61095;Laerm;20450;49.074;9.158;2023-11-21T11:43:32;43.28;41.38;48.03;;
61095;Laerm;20450;49.074;9.158;2023-11-21T11:46:04;43.07;41.38;45.94;;
61095;Laerm;20450;49.074;9.158;2023-11-21T11:48:38;43.38;41.89;49.03;;
61095;Laerm;20450;49.074;9.158;2023-11-21T11:51:11;43.25;41.30;51.26;;
61095;Laerm;20450;49.074;9.158;2023-11-21T11:53:40;43.59;41.82;48.57;;
61095;Laerm;20450;49.074;9.158;2023-11-21T11:56:23;43.58;41.96;51.56;;
61095;Laerm;20450;49.074;9.158;2023-11-21T11:58:52;43.38;41.96;47.02;;
61095;Laerm;20450;49.074;9.158;2023-11-21T12:01:21;43.38;42.03;46.45;;
61095;Laerm;20450;49.074;9.158;2023-11-21T12:04:25;43.47;41.55;48.05;;
61095;Laerm;20450;49.074;9.158;2023-11-21T12:06:52;43.22;41.61;45.39;;
61095;Laerm;20450;49.074;9.158;2023-11-21T12:09:22;43.32;41.68;50.36;;
61095;Laerm;20450;49.074;9.158;2023-11-21T12:11:50;43.34;40.98;47.59;;
61095;Laerm;20450;49.074;9.158;2023-11-21T12:14:20;43.34;41.46;48.08;;
61095;Laerm;20450;49.074;9.158;2023-11-21T12:16:47;43.32;41.61;46.78;;
61095;Laerm;20450;49.074;9.158;2023-11-21T12:19:14;43.10;41.22;45.42;;
61095;Laerm;20450;49.074;9.158;2023-11-21T12:21:43;43.30;41.48;46.47;;
61095;Laerm;20450;49.074;9.158;2023-11-21T12:24:10;43.15;41.14;46.15;;
61095;Laerm;20450;49.074;9.158;2023-11-21T12:26:38;43.49;41.68;52.50;;
61095;Laerm;20450;49.074;9.158;2023-11-21T12:29:05;43.31;41.30;45.89;;
61095;Laerm;20450;49.074;9.158;2023-11-21T12:31:35;43.34;41.38;46.78;;
61095;Laerm;20450;49.074;9.158;2023-11-21T12:34:05;43.48;41.68;46.05;;
61095;Laerm;20450;49.074;9.158;2023-11-21T12:36:45;43.43;41.75;46.50;;
61095;Laerm;20450;49.074;9.158;2023-11-21T12:39:14;43.53;41.96;46.20;;
61095;Laerm;20450;49.074;9.158;2023-11-21T12:41:41;43.57;41.96;47.16;;
61095;Laerm;20450;49.074;9.158;2023-11-21T12:44:12;43.49;41.61;47.77;;
61095;Laerm;20450;49.074;9.158;2023-11-21T12:46:42;43.40;41.82;47.18;;
61095;Laerm;20450;49.074;9.158;2023-11-21T12:49:12;43.22;41.30;45.91;;
61095;Laerm;20450;49.074;9.158;2023-11-21T12:51:39;43.35;41.38;46.25;;
61095;Laerm;20450;49.074;9.158;2023-11-21T12:54:08;43.72;41.33;48.08;;
61095;Laerm;20450;49.074;9.158;2023-11-21T12:56:38;43.37;41.46;45.36;;
61095;Laerm;20450;49.074;9.158;2023-11-21T12:59:07;43.60;41.46;49.42;;
61095;Laerm;20450;49.074;9.158;2023-11-21T13:01:37;43.84;41.82;53.18;;
61095;Laerm;20450;49.074;9.158;2023-11-21T13:04:08;43.63;41.38;46.95;;
61095;Laerm;20450;49.074;9.158;2023-11-21T13:06:36;43.60;41.75;45.77;;
61095;Laerm;20450;49.074;9.158;2023-11-21T13:09:04;43.58;41.75;45.67;;
61095;Laerm;20450;49.074;9.158;2023-11-21T13:11:36;44.71;41.96;54.89;;
61095;Laerm;20450;49.074;9.158;2023-11-21T13:14:03;43.86;41.75;50.54;;
61095;Laerm;20450;49.074;9.158;2023-11-21T13:16:30;43.60;41.94;44.90;;
61095;Laerm;20450;49.074;9.158;2023-11-21T13:18:58;43.51;41.68;47.54;;
61095;Laerm;20450;49.074;9.158;2023-11-21T13:21:25;43.63;42.09;51.92;;
61095;Laerm;20450;49.074;9.158;2023-11-21T13:23:54;43.63;41.96;45.57;;
61095;Laerm;20450;49.074;9.158;2023-11-21T13:26:24;43.57;42.03;48.54;;
61095;Laerm;20450;49.074;9.158;2023-11-21T13:28:53;43.55;41.89;49.10;;
61095;Laerm;20450;49.074;9.158;2023-11-21T13:31:21;43.82;41.89;47.42;;
61095;Laerm;20450;49.074;9.158;2023-11-21T13:33:49;43.84;41.82;49.81;;
61095;Laerm;20450;49.074;9.158;2023-11-21T13:36:17;43.73;41.89;50.63;;
61095;Laerm;20450;49.074;9.158;2023-11-21T13:38:45;43.76;41.82;48.93;;
61095;Laerm;20450;49.074;9.158;2023-11-21T13:41:12;43.69;42.22;47.28;;
61095;Laerm;20450;49.074;9.158;2023-11-21T13:43:42;43.72;41.89;46.40;;
61095;Laerm;20450;49.074;9.158;2023-11-21T13:46:11;43.55;41.68;48.12;;
61095;Laerm;20450;49.074;9.158;2023-11-21T13:48:40;43.62;41.61;46.71;;
61095;Laerm;20450;49.074;9.158;2023-11-21T13:51:08;43.59;41.96;44.97;;
61095;Laerm;20450;49.074;9.158;2023-11-21T13:53:36;43.64;41.30;47.54;;
61095;Laerm;20450;49.074;9.158;2023-11-21T13:56:05;43.50;41.61;45.99;;